sensor_id;sensor_type;location;lat;lon;timestamp;P1;durP1;ratioP1;P2;durP2;ratioP2
37237;SDS011;23129;49.662;8.448;2023-04-03T00:01:55;4.90;;;2.50;;
37237;SDS011;23129;49.662;8.448;2023-04-03T00:04:24;3.20;;;2.20;;
37237;SDS011;23129;49.662;8.448;2023-04-03T00:06:52;3.03;;;2.25;;
37237;SDS011;23129;49.662;8.448;2023-04-03T00:09:22;2.75;;;2.25;;
37237;SDS011;23129;49.662;8.448;2023-04-03T00:11:50;2.83;;;2.10;;
37237;SDS011;23129;49.662;8.448;2023-04-03T00:14:19;2.28;;;2.08;;
37237;SDS011;23129;49.662;8.448;2023-04-03T00:16:47;2.28;;;2.13;;
37237;SDS011;23129;49.662;8.448;2023-04-03T00:19:16;2.42;;;1.98;;
37237;SDS011;23129;49.662;8.448;2023-04-03T00:21:44;4.28;;;2.50;;
37237;SDS011;23129;49.662;8.448;2023-04-03T00:24:13;2.10;;;1.85;;
37237;SDS011;23129;49.662;8.448;2023-04-03T00:26:43;2.63;;;2.08;;
37237;SDS011;23129;49.662;8.448;2023-04-03T00:29:12;6.65;;;2.00;;
37237;SDS011;23129;49.662;8.448;2023-04-03T00:31:41;2.42;;;2.22;;
37237;SDS011;23129;49.662;8.448;2023-04-03T00:34:09;1.92;;;1.67;;
37237;SDS011;23129;49.662;8.448;2023-04-03T00:36:38;4.38;;;2.30;;
37237;SDS011;23129;49.662;8.448;2023-04-03T00:39:06;1.95;;;1.85;;
37237;SDS011;23129;49.662;8.448;2023-04-03T00:41:35;3.20;;;2.35;;
37237;SDS011;23129;49.662;8.448;2023-04-03T00:46:57;4.70;;;2.17;;
37237;SDS011;23129;49.662;8.448;2023-04-03T00:49:25;4.75;;;2.35;;
37237;SDS011;23129;49.662;8.448;2023-04-03T00:51:55;3.70;;;2.38;;
37237;SDS011;23129;49.662;8.448;2023-04-03T00:54:25;4.28;;;2.50;;
37237;SDS011;23129;49.662;8.448;2023-04-03T00:56:54;2.15;;;1.95;;
37237;SDS011;23129;49.662;8.448;2023-04-03T00:59:25;4.38;;;2.47;;
37237;SDS011;23129;49.662;8.448;2023-04-03T01:02:01;4.38;;;2.28;;
37237;SDS011;23129;49.662;8.448;2023-04-03T01:04:31;4.47;;;2.17;;
37237;SDS011;23129;49.662;8.448;2023-04-03T01:07:03;5.60;;;2.45;;
37237;SDS011;23129;49.662;8.448;2023-04-03T01:09:35;2.50;;;2.30;;
37237;SDS011;23129;49.662;8.448;2023-04-03T01:12:13;2.37;;;2.23;;
37237;SDS011;23129;49.662;8.448;2023-04-03T01:14:43;2.55;;;2.20;;
37237;SDS011;23129;49.662;8.448;2023-04-03T01:17:27;2.50;;;2.30;;
37237;SDS011;23129;49.662;8.448;2023-04-03T01:20:03;3.55;;;2.50;;
37237;SDS011;23129;49.662;8.448;2023-04-03T01:23:08;14.00;;;2.28;;
37237;SDS011;23129;49.662;8.448;2023-04-03T01:25:51;2.78;;;2.08;;
37237;SDS011;23129;49.662;8.448;2023-04-03T01:28:23;6.60;;;2.72;;
37237;SDS011;23129;49.662;8.448;2023-04-03T01:30:56;6.00;;;3.78;;
37237;SDS011;23129;49.662;8.448;2023-04-03T01:33:36;6.97;;;2.70;;
37237;SDS011;23129;49.662;8.448;2023-04-03T01:36:06;3.72;;;2.40;;
37237;SDS011;23129;49.662;8.448;2023-04-03T01:38:35;4.35;;;2.38;;
37237;SDS011;23129;49.662;8.448;2023-04-03T01:41:03;2.47;;;2.22;;
37237;SDS011;23129;49.662;8.448;2023-04-03T01:43:32;6.65;;;2.65;;
37237;SDS011;23129;49.662;8.448;2023-04-03T01:46:00;2.20;;;2.10;;
37237;SDS011;23129;49.662;8.448;2023-04-03T01:48:29;5.38;;;2.70;;
37237;SDS011;23129;49.662;8.448;2023-04-03T01:50:59;2.72;;;2.17;;
37237;SDS011;23129;49.662;8.448;2023-04-03T01:53:28;3.15;;;2.00;;
37237;SDS011;23129;49.662;8.448;2023-04-03T01:55:56;1.80;;;1.67;;
37237;SDS011;23129;49.662;8.448;2023-04-03T01:58:25;2.50;;;2.17;;
37237;SDS011;23129;49.662;8.448;2023-04-03T02:00:53;3.25;;;1.92;;
37237;SDS011;23129;49.662;8.448;2023-04-03T02:03:22;2.75;;;1.90;;
37237;SDS011;23129;49.662;8.448;2023-04-03T02:05:51;2.00;;;1.90;;
37237;SDS011;23129;49.662;8.448;2023-04-03T02:08:21;2.13;;;1.92;;
37237;SDS011;23129;49.662;8.448;2023-04-03T02:10:49;2.10;;;1.90;;
37237;SDS011;23129;49.662;8.448;2023-04-03T02:13:18;2.70;;;2.50;;
37237;SDS011;23129;49.662;8.448;2023-04-03T02:15:47;8.27;;;3.65;;
37237;SDS011;23129;49.662;8.448;2023-04-03T02:18:16;4.85;;;2.67;;
37237;SDS011;23129;49.662;8.448;2023-04-03T02:20:45;3.40;;;2.53;;
37237;SDS011;23129;49.662;8.448;2023-04-03T02:23:14;4.57;;;2.30;;
37237;SDS011;23129;49.662;8.448;2023-04-03T02:25:44;2.38;;;2.08;;
37237;SDS011;23129;49.662;8.448;2023-04-03T02:28:12;4.60;;;2.85;;
37237;SDS011;23129;49.662;8.448;2023-04-03T02:30:41;8.77;;;2.90;;
37237;SDS011;23129;49.662;8.448;2023-04-03T02:33:10;3.15;;;2.42;;
37237;SDS011;23129;49.662;8.448;2023-04-03T02:35:39;2.17;;;2.00;;
37237;SDS011;23129;49.662;8.448;2023-04-03T02:38:07;2.78;;;2.08;;
37237;SDS011;23129;49.662;8.448;2023-04-03T02:40:36;8.98;;;2.50;;
37237;SDS011;23129;49.662;8.448;2023-04-03T02:43:06;3.15;;;2.85;;
37237;SDS011;23129;49.662;8.448;2023-04-03T02:45:36;3.45;;;2.38;;
37237;SDS011;23129;49.662;8.448;2023-04-03T02:48:05;5.90;;;2.42;;
37237;SDS011;23129;49.662;8.448;2023-04-03T02:50:34;10.05;;;2.28;;
37237;SDS011;23129;49.662;8.448;2023-04-03T02:53:03;1.90;;;1.65;;
37237;SDS011;23129;49.662;8.448;2023-04-03T02:55:31;4.07;;;2.05;;
37237;SDS011;23129;49.662;8.448;2023-04-03T02:58:00;5.70;;;1.80;;
37237;SDS011;23129;49.662;8.448;2023-04-03T03:00:31;2.38;;;2.17;;
37237;SDS011;23129;49.662;8.448;2023-04-03T03:03:00;6.85;;;2.08;;
37237;SDS011;23129;49.662;8.448;2023-04-03T03:05:29;3.40;;;2.35;;
37237;SDS011;23129;49.662;8.448;2023-04-03T03:07:58;4.57;;;2.33;;
37237;SDS011;23129;49.662;8.448;2023-04-03T03:10:26;2.78;;;2.08;;
37237;SDS011;23129;49.662;8.448;2023-04-03T03:12:55;3.05;;;1.67;;
37237;SDS011;23129;49.662;8.448;2023-04-03T03:15:23;6.13;;;1.88;;
37237;SDS011;23129;49.662;8.448;2023-04-03T03:17:53;3.22;;;2.10;;
37237;SDS011;23129;49.662;8.448;2023-04-03T03:20:21;2.47;;;2.05;;
37237;SDS011;23129;49.662;8.448;2023-04-03T03:22:50;2.60;;;1.90;;
37237;SDS011;23129;49.662;8.448;2023-04-03T03:25:18;4.70;;;2.15;;
37237;SDS011;23129;49.662;8.448;2023-04-03T03:27:47;4.75;;;1.88;;
37237;SDS011;23129;49.662;8.448;2023-04-03T03:30:15;3.58;;;2.08;;
37237;SDS011;23129;49.662;8.448;2023-04-03T03:32:44;2.47;;;1.88;;
37237;SDS011;23129;49.662;8.448;2023-04-03T03:35:14;3.92;;;1.95;;
37237;SDS011;23129;49.662;8.448;2023-04-03T03:37:42;5.75;;;1.95;;
37237;SDS011;23129;49.662;8.448;2023-04-03T03:40:12;3.10;;;1.90;;
37237;SDS011;23129;49.662;8.448;2023-04-03T03:42:43;3.20;;;1.65;;
37237;SDS011;23129;49.662;8.448;2023-04-03T03:45:12;2.95;;;2.20;;
37237;SDS011;23129;49.662;8.448;2023-04-03T03:47:40;5.22;;;2.40;;
37237;SDS011;23129;49.662;8.448;2023-04-03T03:50:09;2.00;;;1.80;;
37237;SDS011;23129;49.662;8.448;2023-04-03T03:52:39;3.03;;;2.15;;
37237;SDS011;23129;49.662;8.448;2023-04-03T03:55:08;2.83;;;2.05;;
37237;SDS011;23129;49.662;8.448;2023-04-03T03:57:36;3.53;;;2.08;;
37237;SDS011;23129;49.662;8.448;2023-04-03T04:00:05;2.95;;;2.10;;
37237;SDS011;23129;49.662;8.448;2023-04-03T04:02:44;2.63;;;1.80;;
37237;SDS011;23129;49.662;8.448;2023-04-03T04:05:16;4.07;;;2.22;;
37237;SDS011;23129;49.662;8.448;2023-04-03T04:07:47;2.03;;;1.92;;
37237;SDS011;23129;49.662;8.448;2023-04-03T04:10:16;4.40;;;2.60;;
37237;SDS011;23129;49.662;8.448;2023-04-03T04:12:45;1.80;;;1.70;;
37237;SDS011;23129;49.662;8.448;2023-04-03T04:15:15;2.40;;;2.20;;
37237;SDS011;23129;49.662;8.448;2023-04-03T04:17:44;3.00;;;1.83;;
37237;SDS011;23129;49.662;8.448;2023-04-03T04:20:13;7.55;;;1.80;;
37237;SDS011;23129;49.662;8.448;2023-04-03T04:22:41;1.88;;;1.77;;
37237;SDS011;23129;49.662;8.448;2023-04-03T04:25:12;2.50;;;2.30;;
37237;SDS011;23129;49.662;8.448;2023-04-03T04:27:41;3.55;;;1.60;;
37237;SDS011;23129;49.662;8.448;2023-04-03T04:30:12;5.75;;;2.60;;
37237;SDS011;23129;49.662;8.448;2023-04-03T04:32:44;2.67;;;2.28;;
37237;SDS011;23129;49.662;8.448;2023-04-03T04:35:13;5.75;;;2.40;;
37237;SDS011;23129;49.662;8.448;2023-04-03T04:37:45;4.05;;;2.50;;
37237;SDS011;23129;49.662;8.448;2023-04-03T04:40:16;4.53;;;1.80;;
37237;SDS011;23129;49.662;8.448;2023-04-03T04:42:45;3.33;;;2.30;;
37237;SDS011;23129;49.662;8.448;2023-04-03T04:45:14;2.78;;;2.10;;
37237;SDS011;23129;49.662;8.448;2023-04-03T04:47:44;2.90;;;1.67;;
37237;SDS011;23129;49.662;8.448;2023-04-03T04:50:13;3.58;;;2.03;;
37237;SDS011;23129;49.662;8.448;2023-04-03T04:52:43;2.03;;;1.27;;
37237;SDS011;23129;49.662;8.448;2023-04-03T04:55:12;2.17;;;1.90;;
37237;SDS011;23129;49.662;8.448;2023-04-03T04:57:41;1.70;;;1.52;;
37237;SDS011;23129;49.662;8.448;2023-04-03T05:00:11;14.15;;;2.30;;
37237;SDS011;23129;49.662;8.448;2023-04-03T05:02:41;2.10;;;1.55;;
37237;SDS011;23129;49.662;8.448;2023-04-03T05:05:10;3.20;;;1.80;;
37237;SDS011;23129;49.662;8.448;2023-04-03T05:07:39;3.95;;;2.17;;
37237;SDS011;23129;49.662;8.448;2023-04-03T05:10:08;1.88;;;1.38;;
37237;SDS011;23129;49.662;8.448;2023-04-03T05:12:37;1.48;;;1.38;;
37237;SDS011;23129;49.662;8.448;2023-04-03T05:15:09;3.72;;;2.28;;
37237;SDS011;23129;49.662;8.448;2023-04-03T05:17:38;2.35;;;1.80;;
37237;SDS011;23129;49.662;8.448;2023-04-03T05:20:10;1.88;;;1.77;;
37237;SDS011;23129;49.662;8.448;2023-04-03T05:22:40;3.00;;;2.10;;
37237;SDS011;23129;49.662;8.448;2023-04-03T05:25:09;5.63;;;2.13;;
37237;SDS011;23129;49.662;8.448;2023-04-03T05:27:41;3.88;;;2.25;;
37237;SDS011;23129;49.662;8.448;2023-04-03T05:30:12;4.55;;;2.38;;
37237;SDS011;23129;49.662;8.448;2023-04-03T05:32:41;3.10;;;2.50;;
37237;SDS011;23129;49.662;8.448;2023-04-03T05:35:36;10.70;;;4.53;;
37237;SDS011;23129;49.662;8.448;2023-04-03T05:38:10;21.38;;;9.05;;
37237;SDS011;23129;49.662;8.448;2023-04-03T05:40:39;19.20;;;7.53;;
37237;SDS011;23129;49.662;8.448;2023-04-03T05:43:07;36.60;;;12.95;;
37237;SDS011;23129;49.662;8.448;2023-04-03T05:45:41;27.25;;;11.80;;
37237;SDS011;23129;49.662;8.448;2023-04-03T05:48:13;26.37;;;11.63;;
37237;SDS011;23129;49.662;8.448;2023-04-03T05:50:42;25.13;;;10.60;;
37237;SDS011;23129;49.662;8.448;2023-04-03T05:53:17;24.67;;;9.82;;
37237;SDS011;23129;49.662;8.448;2023-04-03T05:55:49;28.50;;;9.32;;
37237;SDS011;23129;49.662;8.448;2023-04-03T05:58:18;27.90;;;7.63;;
37237;SDS011;23129;49.662;8.448;2023-04-03T06:00:49;14.65;;;6.03;;
37237;SDS011;23129;49.662;8.448;2023-04-03T06:03:17;18.75;;;6.57;;
37237;SDS011;23129;49.662;8.448;2023-04-03T06:05:47;33.83;;;12.57;;
37237;SDS011;23129;49.662;8.448;2023-04-03T06:08:15;43.35;;;15.30;;
37237;SDS011;23129;49.662;8.448;2023-04-03T06:10:44;41.60;;;12.43;;
37237;SDS011;23129;49.662;8.448;2023-04-03T06:13:14;40.72;;;15.40;;
37237;SDS011;23129;49.662;8.448;2023-04-03T06:15:43;45.40;;;14.35;;
37237;SDS011;23129;49.662;8.448;2023-04-03T06:18:14;21.67;;;9.57;;
37237;SDS011;23129;49.662;8.448;2023-04-03T06:20:42;12.48;;;6.75;;
37237;SDS011;23129;49.662;8.448;2023-04-03T06:23:10;10.07;;;4.47;;
37237;SDS011;23129;49.662;8.448;2023-04-03T06:25:39;6.68;;;3.28;;
37237;SDS011;23129;49.662;8.448;2023-04-03T06:28:08;4.47;;;3.42;;
37237;SDS011;23129;49.662;8.448;2023-04-03T06:30:37;5.88;;;3.58;;
37237;SDS011;23129;49.662;8.448;2023-04-03T06:33:06;5.38;;;2.55;;
37237;SDS011;23129;49.662;8.448;2023-04-03T06:35:36;8.10;;;3.42;;
37237;SDS011;23129;49.662;8.448;2023-04-03T06:38:04;3.47;;;2.45;;
37237;SDS011;23129;49.662;8.448;2023-04-03T06:40:35;2.75;;;2.47;;
37237;SDS011;23129;49.662;8.448;2023-04-03T06:43:05;8.30;;;2.63;;
37237;SDS011;23129;49.662;8.448;2023-04-03T06:45:33;5.00;;;2.65;;
37237;SDS011;23129;49.662;8.448;2023-04-03T06:48:03;3.88;;;2.63;;
37237;SDS011;23129;49.662;8.448;2023-04-03T06:50:32;3.30;;;2.13;;
37237;SDS011;23129;49.662;8.448;2023-04-03T06:53:01;4.45;;;2.75;;
37237;SDS011;23129;49.662;8.448;2023-04-03T06:55:30;4.07;;;2.63;;
37237;SDS011;23129;49.662;8.448;2023-04-03T06:57:59;10.95;;;2.08;;
37237;SDS011;23129;49.662;8.448;2023-04-03T07:00:28;6.78;;;2.60;;
37237;SDS011;23129;49.662;8.448;2023-04-03T07:02:56;5.28;;;2.08;;
37237;SDS011;23129;49.662;8.448;2023-04-03T07:05:25;2.50;;;1.80;;
37237;SDS011;23129;49.662;8.448;2023-04-03T07:07:53;4.60;;;2.08;;
37237;SDS011;23129;49.662;8.448;2023-04-03T07:10:23;2.17;;;1.98;;
37237;SDS011;23129;49.662;8.448;2023-04-03T07:12:52;5.15;;;2.58;;
37237;SDS011;23129;49.662;8.448;2023-04-03T07:15:20;6.03;;;2.60;;
37237;SDS011;23129;49.662;8.448;2023-04-03T07:17:49;4.60;;;2.78;;
37237;SDS011;23129;49.662;8.448;2023-04-03T07:20:18;2.90;;;2.05;;
37237;SDS011;23129;49.662;8.448;2023-04-03T07:22:46;7.88;;;2.55;;
37237;SDS011;23129;49.662;8.448;2023-04-03T07:25:14;7.22;;;2.40;;
37237;SDS011;23129;49.662;8.448;2023-04-03T07:27:45;3.85;;;2.42;;
37237;SDS011;23129;49.662;8.448;2023-04-03T07:30:13;4.20;;;2.40;;
37237;SDS011;23129;49.662;8.448;2023-04-03T07:32:42;1.90;;;1.40;;
37237;SDS011;23129;49.662;8.448;2023-04-03T07:35:11;8.65;;;2.67;;
37237;SDS011;23129;49.662;8.448;2023-04-03T07:37:39;4.93;;;2.03;;
37237;SDS011;23129;49.662;8.448;2023-04-03T07:40:08;2.97;;;1.90;;
37237;SDS011;23129;49.662;8.448;2023-04-03T07:42:37;2.13;;;1.50;;
37237;SDS011;23129;49.662;8.448;2023-04-03T07:45:07;3.10;;;1.88;;
37237;SDS011;23129;49.662;8.448;2023-04-03T07:47:36;1.98;;;1.88;;
37237;SDS011;23129;49.662;8.448;2023-04-03T07:50:06;6.47;;;0.90;;
37237;SDS011;23129;49.662;8.448;2023-04-03T07:52:35;2.25;;;1.52;;
37237;SDS011;23129;49.662;8.448;2023-04-03T07:55:04;1.65;;;1.20;;
37237;SDS011;23129;49.662;8.448;2023-04-03T07:57:33;2.47;;;1.05;;
37237;SDS011;23129;49.662;8.448;2023-04-03T08:00:02;2.78;;;1.15;;
37237;SDS011;23129;49.662;8.448;2023-04-03T08:05:07;3.40;;;1.20;;
37237;SDS011;23129;49.662;8.448;2023-04-03T08:07:36;4.00;;;1.27;;
37237;SDS011;23129;49.662;8.448;2023-04-03T08:10:06;4.03;;;1.40;;
37237;SDS011;23129;49.662;8.448;2023-04-03T08:12:35;24.65;;;5.18;;
37237;SDS011;23129;49.662;8.448;2023-04-03T08:15:04;31.38;;;7.40;;
37237;SDS011;23129;49.662;8.448;2023-04-03T08:17:34;17.73;;;4.55;;
37237;SDS011;23129;49.662;8.448;2023-04-03T08:20:05;39.40;;;12.93;;
37237;SDS011;23129;49.662;8.448;2023-04-03T08:22:35;10.20;;;5.10;;
37237;SDS011;23129;49.662;8.448;2023-04-03T08:25:04;2.70;;;1.75;;
37237;SDS011;23129;49.662;8.448;2023-04-03T08:27:34;4.07;;;1.52;;
37237;SDS011;23129;49.662;8.448;2023-04-03T08:30:03;2.80;;;1.52;;
37237;SDS011;23129;49.662;8.448;2023-04-03T08:32:33;1.63;;;1.20;;
37237;SDS011;23129;49.662;8.448;2023-04-03T08:35:02;3.15;;;1.55;;
37237;SDS011;23129;49.662;8.448;2023-04-03T08:37:34;4.35;;;1.83;;
37237;SDS011;23129;49.662;8.448;2023-04-03T08:40:04;5.47;;;1.00;;
37237;SDS011;23129;49.662;8.448;2023-04-03T08:42:40;6.75;;;2.63;;
37237;SDS011;23129;49.662;8.448;2023-04-03T08:45:19;2.50;;;1.60;;
37237;SDS011;23129;49.662;8.448;2023-04-03T08:48:00;2.53;;;1.45;;
37237;SDS011;23129;49.662;8.448;2023-04-03T08:50:35;2.42;;;1.50;;
37237;SDS011;23129;49.662;8.448;2023-04-03T08:53:10;3.75;;;1.00;;
37237;SDS011;23129;49.662;8.448;2023-04-03T08:58:13;3.80;;;0.90;;
37237;SDS011;23129;49.662;8.448;2023-04-03T09:00:44;3.50;;;1.45;;
37237;SDS011;23129;49.662;8.448;2023-04-03T09:03:18;3.88;;;1.30;;
37237;SDS011;23129;49.662;8.448;2023-04-03T09:05:51;2.67;;;1.10;;
37237;SDS011;23129;49.662;8.448;2023-04-03T09:08:25;1.85;;;1.45;;
37237;SDS011;23129;49.662;8.448;2023-04-03T09:10:59;3.05;;;1.00;;
37237;SDS011;23129;49.662;8.448;2023-04-03T09:13:40;6.72;;;0.93;;
37237;SDS011;23129;49.662;8.448;2023-04-03T09:16:20;1.42;;;0.90;;
37237;SDS011;23129;49.662;8.448;2023-04-03T09:19:02;4.85;;;2.25;;
37237;SDS011;23129;49.662;8.448;2023-04-03T09:21:43;1.85;;;0.80;;
37237;SDS011;23129;49.662;8.448;2023-04-03T09:24:12;3.88;;;0.65;;
37237;SDS011;23129;49.662;8.448;2023-04-03T09:26:43;1.52;;;0.90;;
37237;SDS011;23129;49.662;8.448;2023-04-03T09:29:17;7.35;;;0.75;;
37237;SDS011;23129;49.662;8.448;2023-04-03T09:31:49;1.38;;;0.70;;
37237;SDS011;23129;49.662;8.448;2023-04-03T09:34:22;2.88;;;0.80;;
37237;SDS011;23129;49.662;8.448;2023-04-03T09:36:55;2.80;;;0.50;;
37237;SDS011;23129;49.662;8.448;2023-04-03T09:39:26;2.58;;;1.00;;
37237;SDS011;23129;49.662;8.448;2023-04-03T09:41:58;4.57;;;0.70;;
37237;SDS011;23129;49.662;8.448;2023-04-03T09:44:29;3.40;;;1.17;;
37237;SDS011;23129;49.662;8.448;2023-04-03T09:47:00;4.60;;;0.90;;
37237;SDS011;23129;49.662;8.448;2023-04-03T09:49:50;2.78;;;0.90;;
37237;SDS011;23129;49.662;8.448;2023-04-03T09:52:37;3.10;;;1.00;;
37237;SDS011;23129;49.662;8.448;2023-04-03T09:55:07;4.88;;;1.05;;
37237;SDS011;23129;49.662;8.448;2023-04-03T09:57:41;1.08;;;0.88;;
37237;SDS011;23129;49.662;8.448;2023-04-03T10:00:19;0.95;;;0.57;;
37237;SDS011;23129;49.662;8.448;2023-04-03T10:02:50;1.58;;;0.90;;
37237;SDS011;23129;49.662;8.448;2023-04-03T10:05:25;7.60;;;0.80;;
37237;SDS011;23129;49.662;8.448;2023-04-03T10:08:10;2.30;;;1.00;;
37237;SDS011;23129;49.662;8.448;2023-04-03T10:11:05;1.73;;;0.90;;
37237;SDS011;23129;49.662;8.448;2023-04-03T10:13:48;2.15;;;0.93;;
37237;SDS011;23129;49.662;8.448;2023-04-03T10:16:20;1.75;;;0.80;;
37237;SDS011;23129;49.662;8.448;2023-04-03T10:19:05;7.57;;;0.95;;
37237;SDS011;23129;49.662;8.448;2023-04-03T10:21:59;1.10;;;0.45;;
37237;SDS011;23129;49.662;8.448;2023-04-03T10:24:36;1.52;;;1.08;;
37237;SDS011;23129;49.662;8.448;2023-04-03T10:27:16;1.60;;;0.88;;
37237;SDS011;23129;49.662;8.448;2023-04-03T10:29:55;0.85;;;0.77;;
37237;SDS011;23129;49.662;8.448;2023-04-03T10:32:37;1.08;;;0.65;;
37237;SDS011;23129;49.662;8.448;2023-04-03T10:35:22;2.35;;;0.90;;
37237;SDS011;23129;49.662;8.448;2023-04-03T10:38:04;1.23;;;0.70;;
37237;SDS011;23129;49.662;8.448;2023-04-03T10:40:47;1.45;;;0.50;;
37237;SDS011;23129;49.662;8.448;2023-04-03T10:43:27;1.27;;;0.90;;
37237;SDS011;23129;49.662;8.448;2023-04-03T10:46:04;4.30;;;0.73;;
37237;SDS011;23129;49.662;8.448;2023-04-03T10:48:40;3.38;;;0.75;;
37237;SDS011;23129;49.662;8.448;2023-04-03T10:51:28;4.80;;;0.80;;
37237;SDS011;23129;49.662;8.448;2023-04-03T10:54:05;1.80;;;0.93;;
37237;SDS011;23129;49.662;8.448;2023-04-03T10:56:40;1.02;;;0.75;;
37237;SDS011;23129;49.662;8.448;2023-04-03T10:59:18;1.85;;;0.60;;
37237;SDS011;23129;49.662;8.448;2023-04-03T11:01:53;1.52;;;0.70;;
37237;SDS011;23129;49.662;8.448;2023-04-03T11:04:27;2.92;;;0.80;;
37237;SDS011;23129;49.662;8.448;2023-04-03T11:07:02;3.03;;;0.80;;
37237;SDS011;23129;49.662;8.448;2023-04-03T11:09:37;3.47;;;0.70;;
37237;SDS011;23129;49.662;8.448;2023-04-03T11:12:11;8.68;;;0.90;;
37237;SDS011;23129;49.662;8.448;2023-04-03T11:14:44;2.55;;;0.73;;
37237;SDS011;23129;49.662;8.448;2023-04-03T11:17:18;1.15;;;0.85;;
37237;SDS011;23129;49.662;8.448;2023-04-03T11:19:59;0.88;;;0.70;;
37237;SDS011;23129;49.662;8.448;2023-04-03T11:22:34;0.70;;;0.70;;
37237;SDS011;23129;49.662;8.448;2023-04-03T11:25:14;3.40;;;0.60;;
37237;SDS011;23129;49.662;8.448;2023-04-03T11:27:50;2.97;;;1.05;;
37237;SDS011;23129;49.662;8.448;2023-04-03T11:30:25;3.80;;;0.75;;
37237;SDS011;23129;49.662;8.448;2023-04-03T11:33:03;3.95;;;1.45;;
37237;SDS011;23129;49.662;8.448;2023-04-03T11:35:47;3.75;;;1.27;;
37237;SDS011;23129;49.662;8.448;2023-04-03T11:38:19;2.28;;;0.65;;
37237;SDS011;23129;49.662;8.448;2023-04-03T11:40:54;4.05;;;1.02;;
37237;SDS011;23129;49.662;8.448;2023-04-03T11:43:26;1.88;;;1.00;;
37237;SDS011;23129;49.662;8.448;2023-04-03T11:45:56;6.38;;;1.13;;
37237;SDS011;23129;49.662;8.448;2023-04-03T11:48:47;1.33;;;1.02;;
37237;SDS011;23129;49.662;8.448;2023-04-03T11:51:38;2.00;;;0.82;;
37237;SDS011;23129;49.662;8.448;2023-04-03T11:57:22;2.67;;;0.70;;
37237;SDS011;23129;49.662;8.448;2023-04-03T12:06:43;1.52;;;1.00;;
37237;SDS011;23129;49.662;8.448;2023-04-03T12:12:58;4.63;;;1.67;;
37237;SDS011;23129;49.662;8.448;2023-04-03T12:24:38;1.58;;;0.93;;
37237;SDS011;23129;49.662;8.448;2023-04-03T12:30:24;2.53;;;1.10;;
37237;SDS011;23129;49.662;8.448;2023-04-03T12:35:57;2.65;;;0.93;;
37237;SDS011;23129;49.662;8.448;2023-04-03T12:41:43;2.30;;;1.30;;
37237;SDS011;23129;49.662;8.448;2023-04-03T12:47:25;2.88;;;1.17;;
37237;SDS011;23129;49.662;8.448;2023-04-03T12:50:00;2.03;;;1.17;;
37237;SDS011;23129;49.662;8.448;2023-04-03T12:52:36;3.15;;;0.77;;
37237;SDS011;23129;49.662;8.448;2023-04-03T12:55:14;2.92;;;0.80;;
37237;SDS011;23129;49.662;8.448;2023-04-03T12:57:43;1.60;;;0.70;;
37237;SDS011;23129;49.662;8.448;2023-04-03T13:00:19;1.58;;;0.90;;
37237;SDS011;23129;49.662;8.448;2023-04-03T13:03:01;2.30;;;1.05;;
37237;SDS011;23129;49.662;8.448;2023-04-03T13:05:33;3.38;;;1.13;;
37237;SDS011;23129;49.662;8.448;2023-04-03T13:08:03;3.60;;;1.05;;
37237;SDS011;23129;49.662;8.448;2023-04-03T13:10:43;1.80;;;0.65;;
37237;SDS011;23129;49.662;8.448;2023-04-03T13:13:19;2.85;;;1.00;;
37237;SDS011;23129;49.662;8.448;2023-04-03T13:15:49;5.10;;;1.13;;
37237;SDS011;23129;49.662;8.448;2023-04-03T13:18:26;6.43;;;0.57;;
37237;SDS011;23129;49.662;8.448;2023-04-03T13:21:00;2.58;;;0.95;;
37237;SDS011;23129;49.662;8.448;2023-04-03T13:23:33;3.03;;;0.50;;
37237;SDS011;23129;49.662;8.448;2023-04-03T13:26:05;3.95;;;0.98;;
37237;SDS011;23129;49.662;8.448;2023-04-03T13:28:35;9.82;;;0.80;;
37237;SDS011;23129;49.662;8.448;2023-04-03T13:31:07;1.90;;;0.90;;
37237;SDS011;23129;49.662;8.448;2023-04-03T13:33:52;0.75;;;0.75;;
37237;SDS011;23129;49.662;8.448;2023-04-03T13:36:27;2.05;;;0.93;;
37237;SDS011;23129;49.662;8.448;2023-04-03T13:39:01;1.27;;;1.00;;
37237;SDS011;23129;49.662;8.448;2023-04-03T13:41:33;0.95;;;0.75;;
37237;SDS011;23129;49.662;8.448;2023-04-03T13:44:17;12.18;;;3.90;;
37237;SDS011;23129;49.662;8.448;2023-04-03T13:46:59;3.27;;;1.50;;
37237;SDS011;23129;49.662;8.448;2023-04-03T13:49:42;8.40;;;1.08;;
37237;SDS011;23129;49.662;8.448;2023-04-03T13:52:25;2.35;;;0.90;;
37237;SDS011;23129;49.662;8.448;2023-04-03T13:54:58;1.20;;;1.20;;
37237;SDS011;23129;49.662;8.448;2023-04-03T13:57:33;3.15;;;0.95;;
37237;SDS011;23129;49.662;8.448;2023-04-03T14:02:55;4.03;;;0.90;;
37237;SDS011;23129;49.662;8.448;2023-04-03T14:05:24;1.38;;;0.75;;
37237;SDS011;23129;49.662;8.448;2023-04-03T14:07:54;0.90;;;0.60;;
37237;SDS011;23129;49.662;8.448;2023-04-03T14:10:23;1.20;;;1.05;;
37237;SDS011;23129;49.662;8.448;2023-04-03T14:12:51;0.98;;;0.88;;
37237;SDS011;23129;49.662;8.448;2023-04-03T14:15:21;1.10;;;0.65;;
37237;SDS011;23129;49.662;8.448;2023-04-03T14:17:53;1.83;;;1.08;;
37237;SDS011;23129;49.662;8.448;2023-04-03T14:20:24;2.55;;;1.17;;
37237;SDS011;23129;49.662;8.448;2023-04-03T14:22:55;1.50;;;0.73;;
37237;SDS011;23129;49.662;8.448;2023-04-03T14:25:24;4.07;;;1.25;;
37237;SDS011;23129;49.662;8.448;2023-04-03T14:27:53;3.97;;;0.88;;
37237;SDS011;23129;49.662;8.448;2023-04-03T14:30:23;0.70;;;0.68;;
37237;SDS011;23129;49.662;8.448;2023-04-03T14:32:55;1.60;;;0.70;;
37237;SDS011;23129;49.662;8.448;2023-04-03T14:35:24;2.75;;;1.15;;
37237;SDS011;23129;49.662;8.448;2023-04-03T14:37:53;2.78;;;1.20;;
37237;SDS011;23129;49.662;8.448;2023-04-03T14:40:24;2.15;;;1.15;;
37237;SDS011;23129;49.662;8.448;2023-04-03T14:42:54;4.38;;;0.90;;
37237;SDS011;23129;49.662;8.448;2023-04-03T14:45:23;1.98;;;0.90;;
37237;SDS011;23129;49.662;8.448;2023-04-03T14:47:53;0.82;;;0.70;;
37237;SDS011;23129;49.662;8.448;2023-04-03T14:50:25;3.58;;;1.00;;
37237;SDS011;23129;49.662;8.448;2023-04-03T14:52:56;2.50;;;0.98;;
37237;SDS011;23129;49.662;8.448;2023-04-03T14:55:26;1.02;;;0.68;;
37237;SDS011;23129;49.662;8.448;2023-04-03T14:57:55;4.22;;;1.02;;
37237;SDS011;23129;49.662;8.448;2023-04-03T15:00:24;0.95;;;0.73;;
37237;SDS011;23129;49.662;8.448;2023-04-03T15:02:52;2.35;;;0.88;;
37237;SDS011;23129;49.662;8.448;2023-04-03T15:05:21;3.22;;;1.10;;
37237;SDS011;23129;49.662;8.448;2023-04-03T15:07:50;1.55;;;0.70;;
37237;SDS011;23129;49.662;8.448;2023-04-03T15:10:24;3.50;;;0.80;;
37237;SDS011;23129;49.662;8.448;2023-04-03T15:12:55;1.50;;;0.73;;
37237;SDS011;23129;49.662;8.448;2023-04-03T15:15:23;1.17;;;0.90;;
37237;SDS011;23129;49.662;8.448;2023-04-03T15:17:56;1.42;;;0.65;;
37237;SDS011;23129;49.662;8.448;2023-04-03T15:20:26;4.90;;;1.33;;
37237;SDS011;23129;49.662;8.448;2023-04-03T15:22:57;0.90;;;0.57;;
37237;SDS011;23129;49.662;8.448;2023-04-03T15:25:28;3.00;;;0.80;;
37237;SDS011;23129;49.662;8.448;2023-04-03T15:27:57;5.85;;;0.95;;
37237;SDS011;23129;49.662;8.448;2023-04-03T15:30:26;3.10;;;0.80;;
37237;SDS011;23129;49.662;8.448;2023-04-03T15:32:54;3.10;;;0.75;;
37237;SDS011;23129;49.662;8.448;2023-04-03T15:35:22;3.42;;;0.85;;
37237;SDS011;23129;49.662;8.448;2023-04-03T15:37:51;2.30;;;0.70;;
37237;SDS011;23129;49.662;8.448;2023-04-03T15:40:19;1.02;;;0.88;;
37237;SDS011;23129;49.662;8.448;2023-04-03T15:42:49;2.05;;;0.80;;
37237;SDS011;23129;49.662;8.448;2023-04-03T15:45:19;1.13;;;0.68;;
37237;SDS011;23129;49.662;8.448;2023-04-03T15:47:48;1.33;;;0.77;;
37237;SDS011;23129;49.662;8.448;2023-04-03T15:50:17;1.70;;;0.80;;
37237;SDS011;23129;49.662;8.448;2023-04-03T15:52:45;2.38;;;0.68;;
37237;SDS011;23129;49.662;8.448;2023-04-03T15:55:14;2.85;;;0.93;;
37237;SDS011;23129;49.662;8.448;2023-04-03T15:57:43;1.02;;;0.90;;
37237;SDS011;23129;49.662;8.448;2023-04-03T16:00:13;0.88;;;0.65;;